Time;durP1;ratioP1;P1;durP2;ratioP2;P2;SDS_P1;SDS_P2;PMS_P1;PMS_P2;Temp;Humidity;BMP_temperature;BMP_pressure;BME280_temperature;BME280_humidity;BME280_pressure;Samples;Min_cycle;Max_cycle;Signal;HPM_P1;HPM_P2
2022/01/17 00:00:00;;;;;;;;;;;22.20;26.90;;;;;;5089820;28;19947;-61
2022/01/17 00:02:31;;;;;;;;;;;22.20;26.90;;;;;;5089514;28;19973;-62
2022/01/17 00:04:58;;;;;;;;;;;22.20;26.90;;;;;;5107293;28;19927;-62
2022/01/17 00:07:29;;;;;;;;;;;22.20;26.90;;;;;;5091235;28;20420;-63
2022/01/17 00:09:56;;;;;;;;;;;22.20;26.90;;;;;;5088943;28;19931;-61
2022/01/17 00:12:24;;;;;;;;;;;22.20;26.90;;;;;;5089362;28;19924;-61
2022/01/17 00:14:51;;;;;;;;;;;22.20;26.90;;;;;;5091241;28;20031;-62
2022/01/17 00:19:56;;;;;;;;;;;22.20;26.90;;;;;;5089478;28;20348;-63
2022/01/17 00:22:24;;;;;;;;;;;22.20;26.90;;;;;;5089009;28;20380;-63
2022/01/17 00:24:51;;;;;;;;;;;22.20;26.90;;;;;;5091359;28;19932;-63
2022/01/17 00:27:18;;;;;;;;;;;22.10;26.90;;;;;;5090507;28;19959;-63
2022/01/17 00:29:45;;;;;;;;;;;22.10;26.90;;;;;;5089298;28;19956;-63
2022/01/17 00:32:12;;;;;;;;;;;22.10;26.90;;;;;;5088882;28;20014;-63
2022/01/17 00:34:40;;;;;;;;;;;22.10;26.90;;;;;;5090730;28;19981;-63
2022/01/17 00:37:07;;;;;;;;;;;22.10;26.90;;;;;;5090681;28;20000;-63
2022/01/17 00:39:34;;;;;;;;;;;22.10;26.90;;;;;;5088982;28;20091;-63
2022/01/17 00:42:01;;;;;;;;;;;22.10;26.90;;;;;;5088859;28;20347;-63
2022/01/17 00:44:28;;;;;;;;;;;22.10;26.90;;;;;;5089947;28;19959;-63
2022/01/17 00:46:55;;;;;;;;;;;22.10;26.90;;;;;;5090994;28;19920;-63
2022/01/17 00:49:22;;;;;;;;;;;22.10;26.90;;;;;;5088796;28;19920;-63
2022/01/17 00:51:49;;;;;;;;;;;22.10;26.90;;;;;;5088476;28;19927;-63
2022/01/17 00:54:16;;;;;;;;;;;22.10;26.90;;;;;;5090157;28;20391;-63
2022/01/17 00:56:43;;;;;;;;;;;22.10;27.00;;;;;;5090651;28;19981;-63
2022/01/17 00:59:10;;;;;;;;;;;22.10;27.00;;;;;;5088383;28;19955;-63
2022/01/17 01:01:37;;;;;;;;;;;22.10;27.00;;;;;;5088848;28;20426;-63
2022/01/17 01:04:04;;;;;;;;;;;22.10;27.00;;;;;;5089667;28;19920;-63
2022/01/17 01:06:31;;;;;;;;;;;22.00;26.90;;;;;;5090472;28;20011;-63
2022/01/17 01:08:58;;;;;;;;;;;22.10;27.00;;;;;;5088615;28;20015;-63
2022/01/17 01:11:25;;;;;;;;;;;22.10;27.00;;;;;;5088012;28;19965;-62
2022/01/17 01:13:52;;;;;;;;;;;22.10;27.00;;;;;;5089913;28;19989;-63
2022/01/17 01:16:30;;;;;;;;;;;22.10;27.00;;;;;;5090064;28;20010;-63
2022/01/17 01:19:19;;;;;;;;;;;22.10;27.00;;;;;;5088957;28;20024;-63
2022/01/17 01:30:07;;;;;;;;;;;22.10;27.00;;;;;;5088201;28;19942;-63
2022/01/17 01:32:42;;;;;;;;;;;22.10;27.00;;;;;;5088173;28;20446;-62
2022/01/17 01:35:12;;;;;;;;;;;22.00;27.00;;;;;;5089857;28;19965;-63
2022/01/17 01:37:39;;;;;;;;;;;22.10;27.00;;;;;;5089088;28;19920;-63
2022/01/17 01:40:06;;;;;;;;;;;22.10;27.00;;;;;;5087724;28;19971;-63
2022/01/17 01:42:33;;;;;;;;;;;22.10;27.00;;;;;;5088252;28;20014;-63
2022/01/17 01:45:01;;;;;;;;;;;22.10;27.00;;;;;;5089740;28;19974;-63
2022/01/17 01:47:28;;;;;;;;;;;22.10;27.00;;;;;;5089390;28;19965;-63
2022/01/17 01:49:55;;;;;;;;;;;22.10;27.00;;;;;;5087713;28;20014;-63
2022/01/17 01:52:24;;;;;;;;;;;22.10;27.00;;;;;;5069665;28;20001;-63
2022/01/17 01:58:12;;;;;;;;;;;22.10;26.90;;;;;;5091484;28;19939;-63
2022/01/17 02:00:39;;;;;;;;;;;22.10;26.90;;;;;;5092221;28;19942;-63
2022/01/17 02:03:06;;;;;;;;;;;22.10;27.00;;;;;;5092620;28;19920;-63
2022/01/17 02:05:34;;;;;;;;;;;22.10;26.90;;;;;;5093996;28;19978;-63
2022/01/17 02:08:01;;;;;;;;;;;22.10;26.90;;;;;;5093006;28;19920;-63
2022/01/17 02:10:28;;;;;;;;;;;22.10;27.00;;;;;;5091485;28;19963;-63
2022/01/17 02:12:55;;;;;;;;;;;22.00;26.90;;;;;;5092406;28;20361;-64
2022/01/17 02:15:22;;;;;;;;;;;22.00;26.90;;;;;;5094069;28;20276;-63
2022/01/17 02:17:56;;;;;;;;;;;22.00;26.90;;;;;;5093125;28;19985;-62
2022/01/17 02:20:27;;;;;;;;;;;22.00;26.90;;;;;;5091686;28;20014;-63
2022/01/17 02:22:54;;;;;;;;;;;22.00;27.00;;;;;;5091650;28;19998;-65
2022/01/17 02:25:21;;;;;;;;;;;22.00;27.00;;;;;;5093594;28;20028;-63
2022/01/17 02:27:48;;;;;;;;;;;22.00;27.00;;;;;;5092601;28;19973;-63
2022/01/17 02:30:21;;;;;;;;;;;22.00;27.00;;;;;;5091733;28;19963;-63
2022/01/17 02:32:48;;;;;;;;;;;22.00;27.00;;;;;;5091156;28;19920;-63
2022/01/17 02:35:22;;;;;;;;;;;22.00;27.00;;;;;;5093283;28;20183;-63
2022/01/17 02:37:50;;;;;;;;;;;22.00;27.00;;;;;;5092086;28;20377;-63
2022/01/17 02:40:18;;;;;;;;;;;22.00;27.00;;;;;;5091485;28;19982;-63
2022/01/17 02:43:01;;;;;;;;;;;22.00;27.00;;;;;;5073099;28;20010;-63
2022/01/17 02:46:24;;;;;;;;;;;22.00;27.00;;;;;;5093467;28;19993;-63
2022/01/17 02:48:15;;;;;;;;;;;22.00;27.00;;;;;;5091763;28;19977;-63
2022/01/17 02:50:42;;;;;;;;;;;22.00;27.00;;;;;;5090800;28;20464;-63
2022/01/17 02:53:09;;;;;;;;;;;21.90;27.00;;;;;;5091511;28;20498;-63
2022/01/17 02:55:37;;;;;;;;;;;21.90;27.00;;;;;;5093151;28;19919;-63
2022/01/17 02:58:04;;;;;;;;;;;21.90;27.00;;;;;;5092185;28;19950;-63
2022/01/17 03:00:31;;;;;;;;;;;21.90;27.00;;;;;;5090541;28;19982;-62
2022/01/17 03:02:58;;;;;;;;;;;21.90;27.00;;;;;;5091225;28;19942;-62
2022/01/17 03:05:25;;;;;;;;;;;21.90;27.00;;;;;;5092765;28;19926;-63
2022/01/17 03:07:52;;;;;;;;;;;21.90;27.00;;;;;;5091301;28;19973;-63
2022/01/17 03:10:37;;;;;;;;;;;21.90;27.00;;;;;;5090853;28;19977;-62
2022/01/17 03:13:16;;;;;;;;;;;21.90;27.00;;;;;;5090826;28;19931;-63
2022/01/17 03:15:45;;;;;;;;;;;21.90;27.50;;;;;;5093064;28;19926;-63
2022/01/17 03:18:12;;;;;;;;;;;22.00;27.10;;;;;;5091422;28;19920;-63
2022/01/17 03:20:39;;;;;;;;;;;21.90;27.00;;;;;;5090366;28;19926;-63
2022/01/17 03:23:07;;;;;;;;;;;21.90;27.00;;;;;;5090957;28;20005;-63
2022/01/17 03:25:34;;;;;;;;;;;21.90;27.00;;;;;;5092301;28;19920;-63
2022/01/17 03:28:01;;;;;;;;;;;21.90;27.00;;;;;;5107413;28;19982;-63
2022/01/17 03:30:30;;;;;;;;;;;21.90;27.00;;;;;;5089931;28;19920;-63
2022/01/17 03:32:57;;;;;;;;;;;21.90;27.00;;;;;;5090879;28;20287;-63
2022/01/17 03:35:24;;;;;;;;;;;21.90;27.00;;;;;;5092269;28;20184;-63
2022/01/17 03:37:51;;;;;;;;;;;21.90;27.00;;;;;;5090919;28;19928;-63
2022/01/17 03:40:18;;;;;;;;;;;21.90;27.00;;;;;;5090072;28;20304;-63
2022/01/17 03:42:45;;;;;;;;;;;21.90;27.00;;;;;;5089975;28;19924;-63
2022/01/17 03:45:12;;;;;;;;;;;21.90;27.00;;;;;;5092253;28;19920;-63
2022/01/17 03:47:42;;;;;;;;;;;21.90;27.00;;;;;;5091322;28;19920;-63
2022/01/17 03:50:11;;;;;;;;;;;21.90;26.90;;;;;;5089762;28;19920;-64
2022/01/17 03:52:40;;;;;;;;;;;21.90;27.00;;;;;;5089829;28;19920;-63
2022/01/17 03:55:08;;;;;;;;;;;21.90;27.00;;;;;;5092072;28;19994;-63
2022/01/17 03:57:35;;;;;;;;;;;21.90;27.00;;;;;;5091233;28;20361;-63
2022/01/17 04:00:04;;;;;;;;;;;21.90;27.00;;;;;;5088871;28;20120;-63
2022/01/17 04:02:31;;;;;;;;;;;21.90;27.00;;;;;;5089780;28;19920;-63
2022/01/17 04:04:58;;;;;;;;;;;21.90;27.00;;;;;;5091796;28;19973;-62
2022/01/17 04:07:25;;;;;;;;;;;21.90;27.00;;;;;;5091418;28;19990;-62
2022/01/17 04:09:52;;;;;;;;;;;21.90;27.00;;;;;;5089447;28;20000;-63
2022/01/17 04:12:19;;;;;;;;;;;21.90;27.50;;;;;;5088596;28;20415;-63
2022/01/17 04:14:47;;;;;;;;;;;21.90;27.10;;;;;;5091620;28;19920;-63
2022/01/17 04:17:14;;;;;;;;;;;21.80;27.00;;;;;;5091133;28;19920;-64
2022/01/17 04:19:42;;;;;;;;;;;21.90;27.00;;;;;;5088672;28;19924;-63
2022/01/17 04:22:10;;;;;;;;;;;21.80;27.00;;;;;;5089162;28;20203;-63
2022/01/17 04:24:37;;;;;;;;;;;21.80;27.00;;;;;;5090942;28;19967;-63
2022/01/17 04:27:04;;;;;;;;;;;21.80;27.00;;;;;;5091390;28;20300;-63
2022/01/17 04:29:31;;;;;;;;;;;21.80;27.10;;;;;;5088959;28;20333;-63
2022/01/17 04:32:00;;;;;;;;;;;21.80;27.10;;;;;;5089160;28;20448;-63
2022/01/17 04:34:28;;;;;;;;;;;21.80;27.10;;;;;;5090868;28;19920;-63
2022/01/17 04:36:55;;;;;;;;;;;21.80;27.10;;;;;;5090968;28;19924;-63
2022/01/17 04:39:22;;;;;;;;;;;21.70;27.00;;;;;;5089069;28;20019;-63
2022/01/17 04:41:49;;;;;;;;;;;21.80;27.10;;;;;;5088084;28;19971;-63
2022/01/17 04:47:03;;;;;;;;;;;21.80;27.10;;;;;;5090872;28;19924;-63
2022/01/17 04:49:30;;;;;;;;;;;21.70;27.10;;;;;;5087620;28;19945;-63
2022/01/17 04:51:57;;;;;;;;;;;21.70;27.10;;;;;;5087773;28;19920;-63
2022/01/17 04:54:40;;;;;;;;;;;21.70;27.10;;;;;;5090114;28;19928;-63
2022/01/17 04:57:09;;;;;;;;;;;21.70;27.10;;;;;;5090155;28;19947;-63
2022/01/17 04:59:36;;;;;;;;;;;21.80;27.10;;;;;;5068179;28;20015;-63
2022/01/17 05:02:03;;;;;;;;;;;21.70;27.10;;;;;;5067803;28;20255;-63
2022/01/17 05:04:30;;;;;;;;;;;21.80;27.10;;;;;;5069973;28;19927;-63
2022/01/17 05:06:57;;;;;;;;;;;21.70;27.10;;;;;;5069520;28;19928;-63
2022/01/17 05:09:24;;;;;;;;;;;21.80;27.10;;;;;;5068364;28;19921;-63
2022/01/17 05:11:52;;;;;;;;;;;21.70;27.10;;;;;;5068195;28;19960;-63
2022/01/17 05:14:19;;;;;;;;;;;21.70;27.10;;;;;;5069715;28;20296;-63
2022/01/17 05:16:51;;;;;;;;;;;21.70;27.10;;;;;;5070108;28;20093;-63
2022/01/17 05:22:05;;;;;;;;;;;21.80;27.10;;;;;;5067747;28;19979;-63
2022/01/17 05:24:32;;;;;;;;;;;21.70;27.00;;;;;;5069370;28;20015;-63
2022/01/17 05:26:58;;;;;;;;;;;21.70;27.00;;;;;;5052273;28;20004;-62
2022/01/17 05:29:25;;;;;;;;;;;21.80;27.10;;;;;;5067729;28;19920;-63
2022/01/17 05:31:52;;;;;;;;;;;21.70;27.00;;;;;;5067747;28;20312;-63
2022/01/17 05:34:19;;;;;;;;;;;21.80;27.10;;;;;;5069682;28;20015;-63
2022/01/17 05:36:46;;;;;;;;;;;21.70;27.00;;;;;;5070068;28;19920;-63
2022/01/17 05:39:14;;;;;;;;;;;21.80;27.10;;;;;;5067517;28;19959;-63
2022/01/17 05:41:41;;;;;;;;;;;21.70;27.00;;;;;;5067912;28;19920;-63
2022/01/17 05:44:08;;;;;;;;;;;21.70;27.00;;;;;;5069434;28;19974;-63
2022/01/17 05:46:35;;;;;;;;;;;21.70;27.00;;;;;;5069469;28;19920;-63
2022/01/17 05:49:02;;;;;;;;;;;21.70;27.00;;;;;;5066953;28;19963;-63
2022/01/17 05:51:29;;;;;;;;;;;21.70;27.00;;;;;;5067504;28;20301;-61
2022/01/17 05:53:56;;;;;;;;;;;21.70;27.00;;;;;;5068547;28;20002;-62
2022/01/17 05:56:23;;;;;;;;;;;21.70;27.00;;;;;;5069558;28;20092;-61
2022/01/17 05:58:50;;;;;;;;;;;21.70;27.10;;;;;;5067803;28;20443;-62
2022/01/17 06:01:17;;;;;;;;;;;21.70;27.10;;;;;;5066085;28;19963;-61
2022/01/17 06:03:44;;;;;;;;;;;21.70;27.10;;;;;;5081153;28;19920;-62
2022/01/17 06:06:46;;;;;;;;;;;21.70;27.10;;;;;;5089415;28;19920;-62
2022/01/17 06:09:14;;;;;;;;;;;21.70;27.10;;;;;;5088120;28;19942;-63
2022/01/17 06:11:41;;;;;;;;;;;21.60;27.00;;;;;;5086764;28;20175;-62
2022/01/17 06:14:09;;;;;;;;;;;21.60;27.00;;;;;;5088365;28;20094;-62
2022/01/17 06:16:36;;;;;;;;;;;21.60;27.00;;;;;;5089705;28;19963;-62
2022/01/17 06:19:04;;;;;;;;;;;21.60;27.00;;;;;;5087132;28;20010;-62
2022/01/17 06:21:31;;;;;;;;;;;21.60;27.00;;;;;;5086283;28;19959;-62
2022/01/17 06:24:01;;;;;;;;;;;21.60;27.00;;;;;;5087561;28;19967;-62
2022/01/17 06:26:28;;;;;;;;;;;21.60;27.00;;;;;;5089121;28;19974;-61
2022/01/17 06:28:55;;;;;;;;;;;21.70;27.00;;;;;;5087726;28;19924;-60
2022/01/17 06:31:22;;;;;;;;;;;21.70;26.90;;;;;;5088181;28;19920;-60
2022/01/17 06:33:49;;;;;;;;;;;21.70;26.90;;;;;;5086436;28;20055;-62
2022/01/17 06:36:16;;;;;;;;;;;21.70;26.90;;;;;;5088176;28;20018;-61
2022/01/17 06:38:43;;;;;;;;;;;21.80;26.90;;;;;;5085665;28;19920;-61
2022/01/17 06:41:10;;;;;;;;;;;21.80;26.80;;;;;;5086268;28;19965;-60
2022/01/17 06:43:37;;;;;;;;;;;21.80;26.80;;;;;;5070247;28;19920;-65
2022/01/17 06:46:04;;;;;;;;;;;21.90;27.00;;;;;;5091321;28;20030;-63
2022/01/17 06:48:31;;;;;;;;;;;22.00;27.60;;;;;;5090068;28;19924;-63
2022/01/17 06:50:58;;;;;;;;;;;22.00;27.80;;;;;;5091286;28;19920;-64
2022/01/17 06:53:27;;;;;;;;;;;22.10;27.60;;;;;;5088728;28;20351;-64
2022/01/17 06:55:54;;;;;;;;;;;22.10;27.30;;;;;;5064530;28;19963;-64
2022/01/17 06:58:22;;;;;;;;;;;22.20;27.70;;;;;;5087180;28;19973;-64
2022/01/17 07:00:50;;;;;;;;;;;22.20;27.70;;;;;;5084920;28;19927;-63
2022/01/17 07:03:17;;;;;;;;;;;22.30;27.80;;;;;;5083360;28;19924;-64
2022/01/17 07:05:44;;;;;;;;;;;22.40;27.90;;;;;;5081722;28;19993;-64
2022/01/17 07:08:11;;;;;;;;;;;22.50;28.00;;;;;;5085391;28;20015;-63
2022/01/17 07:10:38;;;;;;;;;;;22.50;28.30;;;;;;5085920;28;19980;-62
2022/01/17 07:16:28;;;;;;;;;;;22.70;27.40;;;;;;5084491;28;20014;-64
2022/01/17 07:18:55;;;;;;;;;;;22.80;27.20;;;;;;5089916;28;19920;-62
2022/01/17 07:21:22;;;;;;;;;;;22.80;27.00;;;;;;5088771;28;19920;-65
2022/01/17 07:23:49;;;;;;;;;;;22.90;27.00;;;;;;5091174;28;20023;-62
2022/01/17 07:26:17;;;;;;;;;;;22.90;26.90;;;;;;5089405;28;19919;-63
2022/01/17 07:28:44;;;;;;;;;;;23.00;26.90;;;;;;5100333;28;19924;-64
2022/01/17 07:31:11;;;;;;;;;;;23.00;26.90;;;;;;5109455;28;19950;-63
2022/01/17 07:33:38;;;;;;;;;;;23.00;26.90;;;;;;5104259;28;20508;-63
2022/01/17 07:36:05;;;;;;;;;;;23.10;26.90;;;;;;5092141;28;19920;-63
2022/01/17 07:46:54;;;;;;;;;;;23.20;26.80;;;;;;5111653;28;20020;-62
2022/01/17 07:49:22;;;;;;;;;;;23.30;26.80;;;;;;5088326;28;19924;-63
2022/01/17 07:51:52;;;;;;;;;;;23.40;26.80;;;;;;5086537;28;19993;-62
2022/01/17 07:54:19;;;;;;;;;;;23.40;26.70;;;;;;5084086;28;20000;-62
2022/01/17 07:56:47;;;;;;;;;;;23.50;26.80;;;;;;5084182;28;19927;-63
2022/01/17 07:59:14;;;;;;;;;;;23.50;26.70;;;;;;5087493;28;19982;-62
2022/01/17 08:01:41;;;;;;;;;;;23.60;26.60;;;;;;5083125;28;19928;-62
2022/01/17 08:04:09;;;;;;;;;;;23.70;26.60;;;;;;5087163;28;19963;-62
2022/01/17 08:06:38;;;;;;;;;;;23.80;26.50;;;;;;5089697;28;20006;-62
2022/01/17 08:09:07;;;;;;;;;;;23.80;26.50;;;;;;5104590;28;19920;-62
2022/01/17 08:11:54;;;;;;;;;;;23.90;26.50;;;;;;5077426;28;20039;-62
2022/01/17 08:14:23;;;;;;;;;;;24.00;26.40;;;;;;5088675;28;19920;-62
2022/01/17 08:16:51;;;;;;;;;;;24.10;26.60;;;;;;5090031;28;19966;-64
2022/01/17 08:19:18;;;;;;;;;;;24.10;26.50;;;;;;5088159;28;19949;-64
2022/01/17 08:21:47;;;;;;;;;;;24.10;26.60;;;;;;5082785;28;19927;-63
2022/01/17 08:24:15;;;;;;;;;;;24.10;26.60;;;;;;5106463;28;19951;-63
2022/01/17 08:26:43;;;;;;;;;;;24.10;26.80;;;;;;5110840;28;19965;-62
2022/01/17 08:29:11;;;;;;;;;;;24.10;26.90;;;;;;5088466;28;20010;-64
2022/01/17 08:31:38;;;;;;;;;;;24.10;26.90;;;;;;5082530;28;19974;-64
2022/01/17 08:34:05;;;;;;;;;;;24.10;27.00;;;;;;5088245;28;19942;-64
2022/01/17 08:36:32;;;;;;;;;;;24.10;27.00;;;;;;5089661;28;20277;-63
2022/01/17 08:38:59;;;;;;;;;;;24.10;27.10;;;;;;5090597;28;19920;-64
2022/01/17 08:41:26;;;;;;;;;;;24.10;27.10;;;;;;5086373;28;20343;-63
2022/01/17 08:43:53;;;;;;;;;;;24.10;27.20;;;;;;5088083;28;19943;-62
2022/01/17 08:46:20;;;;;;;;;;;24.10;27.10;;;;;;5089198;28;19963;-62
2022/01/17 08:48:47;;;;;;;;;;;24.20;27.20;;;;;;5088463;28;19971;-63
2022/01/17 08:51:15;;;;;;;;;;;24.20;27.10;;;;;;5085783;28;19978;-62
2022/01/17 08:53:42;;;;;;;;;;;24.20;27.10;;;;;;5085115;28;19920;-63
2022/01/17 08:56:09;;;;;;;;;;;24.30;27.10;;;;;;5090154;28;19981;-63
2022/01/17 08:58:36;;;;;;;;;;;24.30;27.20;;;;;;5089961;28;19971;-63
2022/01/17 09:01:03;;;;;;;;;;;24.40;27.20;;;;;;5084487;28;20023;-63
2022/01/17 09:03:30;;;;;;;;;;;24.40;27.10;;;;;;5085958;28;19920;-62
2022/01/17 09:05:57;;;;;;;;;;;24.40;27.20;;;;;;5089140;28;19920;-62
2022/01/17 09:08:24;;;;;;;;;;;24.40;27.10;;;;;;5071985;28;19978;-63
2022/01/17 09:10:54;;;;;;;;;;;24.50;27.10;;;;;;5087528;28;19924;-63
2022/01/17 09:13:23;;;;;;;;;;;24.50;27.10;;;;;;5084874;28;20368;-63
2022/01/17 09:15:51;;;;;;;;;;;24.40;27.10;;;;;;5088454;28;19931;-64
2022/01/17 09:18:19;;;;;;;;;;;24.50;27.20;;;;;;5089901;28;19982;-64
2022/01/17 09:20:47;;;;;;;;;;;24.50;27.20;;;;;;5088784;28;19977;-63
2022/01/17 09:23:14;;;;;;;;;;;24.50;27.20;;;;;;5085924;28;19920;-63
2022/01/17 09:25:41;;;;;;;;;;;24.50;27.20;;;;;;5089915;28;19954;-63
2022/01/17 09:28:08;;;;;;;;;;;24.50;27.30;;;;;;5105496;28;19920;-63
2022/01/17 09:30:35;;;;;;;;;;;24.60;27.30;;;;;;5089508;28;19924;-64
2022/01/17 09:33:03;;;;;;;;;;;24.60;27.30;;;;;;5083516;28;20285;-64
2022/01/17 09:35:31;;;;;;;;;;;24.70;27.30;;;;;;5086381;28;19920;-63
2022/01/17 09:37:58;;;;;;;;;;;24.80;27.30;;;;;;5070465;28;19924;-63
2022/01/17 09:40:25;;;;;;;;;;;24.80;27.20;;;;;;5090350;28;20430;-64
2022/01/17 09:42:54;;;;;;;;;;;24.90;27.20;;;;;;5084640;28;19963;-62
2022/01/17 09:45:22;;;;;;;;;;;24.90;27.20;;;;;;5088046;28;19982;-64
2022/01/17 09:47:50;;;;;;;;;;;24.90;27.20;;;;;;5087375;28;19966;-65
2022/01/17 09:50:20;;;;;;;;;;;24.90;27.10;;;;;;5089556;28;19939;-67
2022/01/17 09:52:49;;;;;;;;;;;24.90;27.20;;;;;;5091115;28;19926;-68
2022/01/17 09:55:25;;;;;;;;;;;25.00;27.30;;;;;;5108992;28;19927;-65
2022/01/17 09:57:53;;;;;;;;;;;25.00;27.20;;;;;;5110085;28;20479;-66
2022/01/17 10:00:25;;;;;;;;;;;24.90;27.10;;;;;;5109878;28;20022;-65
2022/01/17 10:02:52;;;;;;;;;;;24.90;27.10;;;;;;5099299;28;19966;-63
2022/01/17 10:05:20;;;;;;;;;;;24.90;27.10;;;;;;5071411;28;20392;-63
2022/01/17 10:07:50;;;;;;;;;;;24.90;27.00;;;;;;5088536;28;19920;-65
2022/01/17 10:10:31;;;;;;;;;;;24.90;27.00;;;;;;5087457;28;19927;-64
2022/01/17 10:13:08;;;;;;;;;;;24.90;27.00;;;;;;5085549;28;19969;-64
2022/01/17 10:15:48;;;;;;;;;;;24.90;27.10;;;;;;5089105;28;20099;-62
2022/01/17 10:18:27;;;;;;;;;;;24.90;27.10;;;;;;5089470;28;19924;-63
2022/01/17 10:21:00;;;;;;;;;;;24.90;27.10;;;;;;5092620;28;19965;-63
2022/01/17 10:23:59;;;;;;;;;;;24.90;27.00;;;;;;5090900;28;20242;-64
2022/01/17 10:37:29;;;;;;;;;;;24.90;26.80;;;;;;5092527;28;19927;-65
2022/01/17 10:40:15;;;;;;;;;;;24.90;26.80;;;;;;5092644;28;19920;-63
2022/01/17 10:42:47;;;;;;;;;;;25.00;26.90;;;;;;5090786;28;19926;-65
2022/01/17 10:45:15;;;;;;;;;;;25.00;27.00;;;;;;5092290;28;19920;-63
2022/01/17 10:47:46;;;;;;;;;;;25.00;26.90;;;;;;5092285;28;20315;-63
2022/01/17 10:50:15;;;;;;;;;;;25.10;27.00;;;;;;5092095;28;19920;-61
2022/01/17 10:52:43;;;;;;;;;;;25.10;27.00;;;;;;5092434;28;19967;-62
2022/01/17 10:55:13;;;;;;;;;;;25.10;26.90;;;;;;5091547;28;19927;-61
2022/01/17 10:57:42;;;;;;;;;;;25.10;26.90;;;;;;5091854;28;19963;-62
2022/01/17 11:00:11;;;;;;;;;;;25.10;26.80;;;;;;5092301;28;19920;-60
2022/01/17 11:02:39;;;;;;;;;;;25.10;26.80;;;;;;5091557;28;19973;-64
2022/01/17 11:05:07;;;;;;;;;;;25.10;26.80;;;;;;5092015;28;19955;-63
2022/01/17 11:07:39;;;;;;;;;;;25.10;26.70;;;;;;5091854;28;19926;-62
2022/01/17 11:10:11;;;;;;;;;;;25.10;26.70;;;;;;5074573;28;20034;-63
2022/01/17 11:12:38;;;;;;;;;;;25.10;26.60;;;;;;5092157;28;19920;-63
2022/01/17 11:15:05;;;;;;;;;;;25.10;26.60;;;;;;5092610;28;19953;-63
2022/01/17 11:17:38;;;;;;;;;;;25.10;26.60;;;;;;5092315;28;19978;-63
2022/01/17 11:20:07;;;;;;;;;;;25.10;26.60;;;;;;5091402;28;19977;-63
2022/01/17 11:22:36;;;;;;;;;;;25.10;26.50;;;;;;5091154;28;19924;-63
2022/01/17 11:25:04;;;;;;;;;;;25.10;26.50;;;;;;5092704;28;19978;-63
2022/01/17 11:27:32;;;;;;;;;;;25.10;26.50;;;;;;5096493;28;19924;-63
2022/01/17 11:29:59;;;;;;;;;;;25.10;26.50;;;;;;5090984;28;19963;-63
2022/01/17 11:32:26;;;;;;;;;;;25.10;26.50;;;;;;5091453;28;20102;-64
2022/01/17 11:34:54;;;;;;;;;;;25.10;26.50;;;;;;5090809;28;19967;-63
2022/01/17 11:37:21;;;;;;;;;;;25.10;26.50;;;;;;5087323;28;20014;-63
2022/01/17 11:39:50;;;;;;;;;;;25.10;26.50;;;;;;5111782;28;20015;-63
2022/01/17 11:42:29;;;;;;;;;;;25.10;26.50;;;;;;5112196;28;20284;-63
2022/01/17 11:44:56;;;;;;;;;;;25.10;26.40;;;;;;5112290;28;19967;-63
2022/01/17 11:47:43;;;;;;;;;;;25.10;26.50;;;;;;5093612;28;20355;-63
2022/01/17 11:50:31;;;;;;;;;;;25.10;26.50;;;;;;5090770;28;19973;-63
2022/01/17 11:53:18;;;;;;;;;;;25.00;26.40;;;;;;5090388;28;19955;-63
2022/01/17 11:55:46;;;;;;;;;;;25.00;26.40;;;;;;5075849;28;19971;-63
2022/01/17 11:58:27;;;;;;;;;;;25.00;26.40;;;;;;5079933;28;19924;-62
2022/01/17 12:01:10;;;;;;;;;;;25.00;26.40;;;;;;5070828;28;19936;-62
2022/01/17 12:03:43;;;;;;;;;;;24.90;26.40;;;;;;5070287;28;20452;-63
2022/01/17 12:06:25;;;;;;;;;;;24.90;26.40;;;;;;5068816;28;19920;-62
2022/01/17 12:09:12;;;;;;;;;;;24.90;26.40;;;;;;5086610;28;19967;-63
2022/01/17 12:11:41;;;;;;;;;;;24.90;26.40;;;;;;5090193;28;20430;-62
2022/01/17 12:14:26;;;;;;;;;;;24.90;26.40;;;;;;5090497;28;19951;-63
2022/01/17 12:16:53;;;;;;;;;;;24.90;26.40;;;;;;5091450;28;19923;-64
2022/01/17 12:19:20;;;;;;;;;;;24.90;26.50;;;;;;5084113;28;20281;-64
2022/01/17 12:21:57;;;;;;;;;;;24.90;26.60;;;;;;5087359;28;19963;-65
2022/01/17 12:24:30;;;;;;;;;;;24.90;26.70;;;;;;5079539;28;19977;-64
2022/01/17 12:27:06;;;;;;;;;;;24.90;26.80;;;;;;5081831;28;20024;-63
2022/01/17 12:29:39;;;;;;;;;;;24.90;26.90;;;;;;5083513;28;19974;-63
2022/01/17 12:32:08;;;;;;;;;;;24.90;26.80;;;;;;5087412;28;19967;-62
2022/01/17 12:38:04;;;;;;;;;;;24.90;26.80;;;;;;5088537;28;19919;-65
2022/01/17 12:40:51;;;;;;;;;;;24.90;26.80;;;;;;5089518;28;20010;-65
2022/01/17 12:43:19;;;;;;;;;;;24.90;26.90;;;;;;5098009;28;19920;-65
2022/01/17 12:45:48;;;;;;;;;;;24.90;27.00;;;;;;5088436;28;19923;-65
2022/01/17 12:48:18;;;;;;;;;;;24.90;27.00;;;;;;5093761;28;19923;-64
2022/01/17 12:50:47;;;;;;;;;;;24.90;27.00;;;;;;5109693;28;19986;-64
2022/01/17 12:53:15;;;;;;;;;;;24.90;27.00;;;;;;5108487;28;19920;-63
2022/01/17 12:55:44;;;;;;;;;;;24.90;27.00;;;;;;5111427;28;20084;-65
2022/01/17 12:58:14;;;;;;;;;;;24.90;27.00;;;;;;5082750;28;20043;-64
2022/01/17 13:00:45;;;;;;;;;;;24.90;27.00;;;;;;5081196;28;19962;-65
2022/01/17 13:03:13;;;;;;;;;;;25.00;27.10;;;;;;5081890;28;19924;-65
2022/01/17 13:05:41;;;;;;;;;;;25.00;27.00;;;;;;5066327;28;19970;-67
2022/01/17 13:08:08;;;;;;;;;;;25.00;27.00;;;;;;5084005;28;19963;-65
2022/01/17 13:10:46;;;;;;;;;;;25.00;27.10;;;;;;5081971;28;20295;-66
2022/01/17 13:13:17;;;;;;;;;;;25.00;27.10;;;;;;5084410;28;19935;-65
2022/01/17 13:15:52;;;;;;;;;;;25.00;27.10;;;;;;5083143;28;19924;-65
2022/01/17 13:18:19;;;;;;;;;;;25.00;27.20;;;;;;5084241;28;19924;-64
2022/01/17 13:20:46;;;;;;;;;;;25.00;27.30;;;;;;5083200;28;19992;-64
2022/01/17 13:23:18;;;;;;;;;;;25.00;27.20;;;;;;5083419;28;19965;-64
2022/01/17 13:25:44;;;;;;;;;;;25.00;27.20;;;;;;5083192;28;19935;-65
2022/01/17 13:28:11;;;;;;;;;;;25.00;27.10;;;;;;5082104;28;20007;-66
2022/01/17 13:30:38;;;;;;;;;;;25.00;27.10;;;;;;5091209;28;19924;-65
2022/01/17 13:33:17;;;;;;;;;;;25.00;27.10;;;;;;5094463;28;19927;-68
2022/01/17 13:35:45;;;;;;;;;;;25.00;27.20;;;;;;5094540;28;19920;-67
2022/01/17 13:38:21;;;;;;;;;;;25.00;27.20;;;;;;5094210;28;19973;-64
2022/01/17 13:40:50;;;;;;;;;;;24.90;27.10;;;;;;5083871;28;20615;-65
2022/01/17 13:43:17;;;;;;;;;;;24.90;27.20;;;;;;5086514;28;20000;-62
2022/01/17 13:45:47;;;;;;;;;;;24.90;27.20;;;;;;5088169;28;20300;-69
2022/01/17 13:48:33;;;;;;;;;;;24.90;27.20;;;;;;5086415;28;20347;-66
2022/01/17 13:51:02;;;;;;;;;;;24.90;27.20;;;;;;5082693;28;19924;-65
2022/01/17 13:53:30;;;;;;;;;;;24.90;27.20;;;;;;5083189;28;20023;-65
2022/01/17 13:55:59;;;;;;;;;;;24.90;27.20;;;;;;5084567;28;19928;-66
2022/01/17 13:58:27;;;;;;;;;;;24.90;27.20;;;;;;5085593;28;19955;-67
2022/01/17 14:00:55;;;;;;;;;;;24.90;27.10;;;;;;5083090;28;19969;-65
2022/01/17 14:03:24;;;;;;;;;;;24.90;27.10;;;;;;5085859;28;20388;-66
2022/01/17 14:05:53;;;;;;;;;;;24.80;27.00;;;;;;5086931;28;19924;-66
2022/01/17 14:08:27;;;;;;;;;;;24.90;27.00;;;;;;5085012;28;19942;-65
2022/01/17 14:10:58;;;;;;;;;;;24.90;27.00;;;;;;5083579;28;20266;-65
2022/01/17 14:13:27;;;;;;;;;;;24.80;26.90;;;;;;5091141;28;20344;-64
2022/01/17 14:15:54;;;;;;;;;;;24.80;26.90;;;;;;5066839;28;19928;-65
2022/01/17 14:18:24;;;;;;;;;;;24.80;27.00;;;;;;5082396;28;20296;-64
2022/01/17 14:20:53;;;;;;;;;;;24.80;27.00;;;;;;5082745;28;20458;-65
2022/01/17 14:23:31;;;;;;;;;;;24.80;27.00;;;;;;5083202;28;19973;-64
2022/01/17 14:25:58;;;;;;;;;;;24.80;27.10;;;;;;5089444;28;20003;-64
2022/01/17 14:28:28;;;;;;;;;;;24.70;27.10;;;;;;5084096;28;19928;-66
2022/01/17 14:30:57;;;;;;;;;;;24.80;27.20;;;;;;5083460;28;19963;-66
2022/01/17 14:33:25;;;;;;;;;;;24.70;27.20;;;;;;5087212;28;19919;-65
2022/01/17 14:36:04;;;;;;;;;;;24.70;27.20;;;;;;5087803;28;20653;-62
2022/01/17 14:38:32;;;;;;;;;;;24.70;27.20;;;;;;5082209;28;19920;-64
2022/01/17 14:40:59;;;;;;;;;;;24.70;27.30;;;;;;5080340;28;20476;-66
2022/01/17 14:43:33;;;;;;;;;;;24.70;27.40;;;;;;5084052;28;20221;-66
2022/01/17 14:46:04;;;;;;;;;;;24.70;27.40;;;;;;5088751;28;20372;-66
2022/01/17 14:48:38;;;;;;;;;;;24.70;27.40;;;;;;5084005;28;20007;-66
2022/01/17 14:51:19;;;;;;;;;;;24.70;27.50;;;;;;5082210;28;20004;-65
2022/01/17 14:53:48;;;;;;;;;;;24.70;27.60;;;;;;5084998;28;19920;-63
2022/01/17 14:59:40;;;;;;;;;;;24.70;27.60;;;;;;5085749;28;20007;-65
2022/01/17 15:02:19;;;;;;;;;;;24.70;27.60;;;;;;5081103;28;19979;-64
2022/01/17 15:04:46;;;;;;;;;;;24.70;27.60;;;;;;5068734;28;20254;-68
2022/01/17 15:07:15;;;;;;;;;;;24.60;27.60;;;;;;5078820;28;20435;-63
2022/01/17 15:09:46;;;;;;;;;;;24.60;27.70;;;;;;5074361;28;19998;-63
2022/01/17 15:12:14;;;;;;;;;;;24.70;27.90;;;;;;5071396;28;19977;-63
2022/01/17 15:14:41;;;;;;;;;;;24.70;27.90;;;;;;5091571;28;20431;-64
2022/01/17 15:17:10;;;;;;;;;;;24.60;27.90;;;;;;5090433;28;19928;-63